createdAt,value
2019-05-12T00:01:38.924Z,2.13
2019-05-12T00:04:08.297Z,2.30
2019-05-12T00:06:38.767Z,2.40
2019-05-12T00:09:08.493Z,1.97
2019-05-12T00:11:37.988Z,2.27
2019-05-12T00:14:08.603Z,2.40
2019-05-12T00:16:38.349Z,2.43
2019-05-12T00:19:09.247Z,2.20
2019-05-12T00:21:39.932Z,2.47
2019-05-12T00:24:12.066Z,2.17
2019-05-12T00:26:42.397Z,2.03
2019-05-12T00:29:11.338Z,2.40
2019-05-12T00:31:40.332Z,2.43
2019-05-12T00:34:09.420Z,2.30
2019-05-12T00:36:38.362Z,1.80
2019-05-12T00:39:08.676Z,2.03
2019-05-12T00:41:38.939Z,2.20
2019-05-12T00:44:08.837Z,1.80
2019-05-12T00:46:38.507Z,2.13
2019-05-12T00:49:08.259Z,2.30
2019-05-12T00:51:38.333Z,1.80
2019-05-12T00:54:09.202Z,2.00
2019-05-12T00:56:39.209Z,2.00
2019-05-12T00:59:08.623Z,2.20
2019-05-12T01:01:38.379Z,2.00
2019-05-12T01:04:08.809Z,2.40
2019-05-12T01:06:38.749Z,2.37
2019-05-12T01:09:08.962Z,2.13
2019-05-12T01:11:38.089Z,2.30
2019-05-12T01:14:08.546Z,2.50
2019-05-12T01:16:38.570Z,2.57
2019-05-12T01:19:08.185Z,2.10
2019-05-12T01:21:37.879Z,2.00
2019-05-12T01:24:08.800Z,2.10
2019-05-12T01:26:38.789Z,1.97
2019-05-12T01:29:08.595Z,2.40
2019-05-12T01:31:39.433Z,1.90
2019-05-12T01:34:08.346Z,2.63
2019-05-12T01:36:38.096Z,2.40
2019-05-12T01:39:08.583Z,1.70
2019-05-12T01:41:38.914Z,2.13
2019-05-12T01:44:08.819Z,2.57
2019-05-12T01:46:38.384Z,2.73
2019-05-12T01:49:08.329Z,2.27
2019-05-12T01:51:38.460Z,2.40
2019-05-12T01:54:14.437Z,2.60
2019-05-12T01:56:38.447Z,2.63
2019-05-12T01:59:08.170Z,2.37
2019-05-12T02:01:38.892Z,2.70
2019-05-12T02:04:08.101Z,2.83
2019-05-12T02:06:38.622Z,3.17
2019-05-12T02:09:09.567Z,2.83
2019-05-12T02:11:38.490Z,3.10
2019-05-12T02:14:09.305Z,2.97
2019-05-12T02:16:38.776Z,2.67
2019-05-12T02:19:09.020Z,2.90
2019-05-12T02:21:38.439Z,2.27
2019-05-12T02:24:07.984Z,2.80
2019-05-12T02:26:38.236Z,2.57
2019-05-12T02:29:08.019Z,3.20
2019-05-12T02:31:39.631Z,2.80
2019-05-12T02:34:07.921Z,3.40
2019-05-12T02:36:36.981Z,2.87
2019-05-12T02:39:07.228Z,3.07
2019-05-12T02:41:36.534Z,2.80
2019-05-12T02:44:05.702Z,2.80
2019-05-12T02:46:35.154Z,2.70
2019-05-12T02:49:05.030Z,2.83
2019-05-12T02:51:35.715Z,3.23
2019-05-12T02:54:05.939Z,2.87
2019-05-12T02:56:35.970Z,3.10
2019-05-12T02:59:05.911Z,2.80
2019-05-12T03:01:35.468Z,2.90
2019-05-12T03:04:05.967Z,2.83
2019-05-12T03:06:36.372Z,3.03
2019-05-12T03:09:07.461Z,2.83
2019-05-12T03:11:37.483Z,3.20
2019-05-12T03:14:06.512Z,2.83
2019-05-12T03:16:35.446Z,2.80
2019-05-12T03:19:05.327Z,3.37
2019-05-12T03:21:35.574Z,2.93
2019-05-12T03:24:06.338Z,2.70
2019-05-12T03:26:35.780Z,3.70
2019-05-12T03:29:05.936Z,3.50
2019-05-12T03:31:40.357Z,3.70
2019-05-12T03:34:09.137Z,3.10
2019-05-12T03:36:42.153Z,3.70
2019-05-12T03:39:09.533Z,4.10
2019-05-12T03:41:38.596Z,3.87
2019-05-12T03:44:07.574Z,3.30
2019-05-12T03:46:36.504Z,3.70
2019-05-12T03:49:05.839Z,3.03
2019-05-12T03:51:35.363Z,3.57
2019-05-12T03:54:05.237Z,3.37
2019-05-12T03:56:34.888Z,3.23
2019-05-12T03:59:05.168Z,3.53
2019-05-12T04:01:36.373Z,3.27
2019-05-12T04:04:05.694Z,3.43
2019-05-12T04:06:35.102Z,3.77
2019-05-12T04:09:06.952Z,3.57
2019-05-12T04:11:36.189Z,3.67
2019-05-12T04:14:05.942Z,4.27
2019-05-12T04:16:36.387Z,4.20
2019-05-12T04:19:05.934Z,4.40
2019-05-12T04:21:35.651Z,4.10
2019-05-12T04:24:05.758Z,4.00
2019-05-12T04:26:36.433Z,3.90
2019-05-12T04:29:05.947Z,4.00
2019-05-12T04:31:36.593Z,4.30
2019-05-12T04:34:05.747Z,3.93
2019-05-12T04:36:35.732Z,3.60
2019-05-12T04:39:06.613Z,3.40
2019-05-12T04:41:36.050Z,3.30
2019-05-12T04:44:05.980Z,3.30
2019-05-12T04:46:35.395Z,3.07
2019-05-12T04:49:05.506Z,2.57
2019-05-12T04:51:35.309Z,3.13
2019-05-12T04:54:05.717Z,3.10
2019-05-12T04:56:36.110Z,3.20
2019-05-12T04:59:05.545Z,3.40
2019-05-12T05:01:35.157Z,2.43
2019-05-12T05:04:05.645Z,2.80
2019-05-12T05:06:35.420Z,3.10
2019-05-12T05:09:07.546Z,3.50
2019-05-12T05:11:36.609Z,3.00
2019-05-12T05:14:05.698Z,6.00
2019-05-12T05:16:34.944Z,3.90
2019-05-12T05:19:24.384Z,4.07
2019-05-12T05:21:54.244Z,4.20
2019-05-12T05:24:23.653Z,3.63
2019-05-12T05:26:53.915Z,4.77
2019-05-12T05:29:24.026Z,5.30
2019-05-12T05:31:53.475Z,10.23
2019-05-12T05:34:23.646Z,8.47
2019-05-12T05:36:59.431Z,7.57
2019-05-12T05:39:24.266Z,6.90
2019-05-12T05:41:53.854Z,4.83
2019-05-12T05:44:24.043Z,5.13
2019-05-12T05:46:54.609Z,6.43
2019-05-12T05:49:23.909Z,6.20
2019-05-12T05:51:56.834Z,4.60
2019-05-12T05:54:31.205Z,10.30
2019-05-12T05:56:59.708Z,9.73
2019-05-12T05:59:31.314Z,7.90
2019-05-12T06:01:55.728Z,6.30
2019-05-12T06:04:24.811Z,6.43
2019-05-12T06:06:56.003Z,6.53
2019-05-12T06:09:24.490Z,8.70
2019-05-12T06:11:54.146Z,6.30
2019-05-12T06:14:23.851Z,6.33
2019-05-12T06:16:53.795Z,6.47
2019-05-12T06:19:25.990Z,7.07
2019-05-12T06:21:53.510Z,7.20
2019-05-12T06:24:23.903Z,5.13
2019-05-12T06:27:00.167Z,3.57
2019-05-12T06:29:25.108Z,3.73
2019-05-12T06:31:54.355Z,3.63
2019-05-12T06:34:23.869Z,3.67
2019-05-12T06:36:57.039Z,3.93
2019-05-12T06:39:23.682Z,3.40
2019-05-12T06:41:55.195Z,5.13
2019-05-12T06:44:24.019Z,3.00
2019-05-12T06:47:02.257Z,3.17
2019-05-12T06:49:24.685Z,3.10
2019-05-12T06:52:01.473Z,2.40
2019-05-12T06:54:24.864Z,2.70
2019-05-12T06:57:25.188Z,2.17
2019-05-12T06:59:53.093Z,2.10
2019-05-12T07:02:24.334Z,3.23
2019-05-12T07:04:57.270Z,3.20
2019-05-12T07:07:27.081Z,2.67
2019-05-12T07:09:56.670Z,2.30
2019-05-12T07:12:32.655Z,2.40
2019-05-12T07:14:58.567Z,2.40
2019-05-12T07:17:43.978Z,2.00
2019-05-12T07:20:08.617Z,2.37
2019-05-12T07:22:44.308Z,2.40
2019-05-12T07:25:08.534Z,2.10
2019-05-12T07:27:39.740Z,2.30
2019-05-12T07:30:09.609Z,2.07
2019-05-12T07:32:38.582Z,2.40
2019-05-12T07:35:08.006Z,1.93
2019-05-12T07:37:38.604Z,2.10
2019-05-12T07:40:08.051Z,2.20
2019-05-12T07:42:39.521Z,2.30
2019-05-12T07:45:11.354Z,2.00
2019-05-12T07:47:39.278Z,2.07
2019-05-12T07:50:09.847Z,2.10
2019-05-12T07:52:38.947Z,1.97
2019-05-12T07:55:08.206Z,1.77
2019-05-12T07:57:51.720Z,2.17
2019-05-12T08:00:11.413Z,1.90
2019-05-12T08:02:38.883Z,2.10
2019-05-12T08:05:11.137Z,1.90
2019-05-12T08:07:38.804Z,2.40
2019-05-12T08:10:15.827Z,1.70
2019-05-12T08:12:38.998Z,1.57
2019-05-12T08:15:09.768Z,1.30
2019-05-12T08:17:38.912Z,1.00
2019-05-12T08:20:08.261Z,0.80
2019-05-12T08:22:37.283Z,0.90
2019-05-12T08:25:07.459Z,0.77
2019-05-12T08:27:39.136Z,0.77
2019-05-12T08:30:07.477Z,1.10
2019-05-12T08:32:36.792Z,1.07
2019-05-12T08:35:09.027Z,1.20
2019-05-12T08:37:37.988Z,0.97
2019-05-12T08:40:07.806Z,1.30
2019-05-12T08:42:36.910Z,0.90
2019-05-12T08:45:08.290Z,1.17
2019-05-12T08:47:38.864Z,1.00
2019-05-12T08:50:07.720Z,1.10
2019-05-12T08:52:41.358Z,0.90
2019-05-12T08:55:07.538Z,1.20
2019-05-12T08:57:40.640Z,1.20
2019-05-12T09:00:08.568Z,1.30
2019-05-12T09:02:39.950Z,1.10
2019-05-12T09:05:09.147Z,0.80
2019-05-12T09:07:40.017Z,1.00
2019-05-12T09:10:09.316Z,1.30
2019-05-12T09:12:38.242Z,1.30
2019-05-12T09:15:08.548Z,1.00
2019-05-12T09:17:49.062Z,1.00
2019-05-12T09:20:08.715Z,0.90
2019-05-12T09:22:37.826Z,1.00
2019-05-12T09:25:08.502Z,1.10
2019-05-12T09:27:39.484Z,1.00
2019-05-12T09:30:09.817Z,1.20
2019-05-12T09:32:43.832Z,1.20
2019-05-12T09:35:09.758Z,1.37
2019-05-12T09:37:40.506Z,0.97
2019-05-12T09:40:09.646Z,1.13
2019-05-12T09:42:38.670Z,1.40
2019-05-12T09:45:10.369Z,1.47
2019-05-12T09:47:38.602Z,1.10
2019-05-12T09:50:13.195Z,0.97
2019-05-12T09:52:38.326Z,0.80
2019-05-12T09:55:07.570Z,1.00
2019-05-12T09:57:40.796Z,0.80
2019-05-12T10:00:08.407Z,1.00
2019-05-12T10:02:37.414Z,1.20
2019-05-12T10:05:06.821Z,1.50
2019-05-12T10:07:35.807Z,1.20
2019-05-12T10:10:07.533Z,0.77
2019-05-12T10:12:45.118Z,1.03
2019-05-12T10:15:10.607Z,1.43
2019-05-12T10:17:39.562Z,0.90
2019-05-12T10:20:09.142Z,0.80
2019-05-12T10:22:40.188Z,0.93
2019-05-12T10:25:10.221Z,0.80
2019-05-12T10:27:39.446Z,1.03
2019-05-12T10:30:13.458Z,1.40
2019-05-12T10:32:43.473Z,1.00
2019-05-12T10:35:21.191Z,1.03
2019-05-12T10:37:44.387Z,1.00
2019-05-12T10:40:15.546Z,1.20
2019-05-12T10:42:46.025Z,1.20
2019-05-12T10:45:20.268Z,1.20
2019-05-12T10:47:46.278Z,1.10
2019-05-12T10:50:16.254Z,0.90
2019-05-12T10:52:45.226Z,0.80
2019-05-12T10:55:14.585Z,1.03
2019-05-12T10:57:44.922Z,0.77
2019-05-12T11:00:19.744Z,0.80
2019-05-12T11:02:46.223Z,0.77
2019-05-12T11:05:21.424Z,0.90
2019-05-12T11:07:46.100Z,1.00
2019-05-12T11:10:19.881Z,0.90
2019-05-12T11:12:45.999Z,0.83
2019-05-12T11:15:15.100Z,0.70
2019-05-12T11:17:48.418Z,0.50
2019-05-12T11:20:35.732Z,0.80
2019-05-12T11:23:04.839Z,0.63
2019-05-12T11:25:34.227Z,1.13
2019-05-12T11:28:03.939Z,0.63
2019-05-12T11:30:34.578Z,0.87
2019-05-12T11:33:04.631Z,0.70
2019-05-12T11:35:35.270Z,0.80
2019-05-12T11:38:04.846Z,0.60
2019-05-12T11:40:34.621Z,0.87
2019-05-12T11:43:04.661Z,0.83
2019-05-12T11:45:33.999Z,1.00
2019-05-12T11:48:10.248Z,0.70
2019-05-12T11:50:33.941Z,0.73
2019-05-12T11:53:04.167Z,0.80
2019-05-12T11:55:34.938Z,1.00
2019-05-12T11:58:09.065Z,1.10
2019-05-12T12:00:36.551Z,1.00
2019-05-12T12:03:12.829Z,1.20
2019-05-12T12:05:38.263Z,1.10
2019-05-12T12:08:06.809Z,1.00
2019-05-12T12:10:39.819Z,1.20
2019-05-12T12:13:06.438Z,1.03
2019-05-12T12:15:35.390Z,0.80
2019-05-12T12:18:13.292Z,1.00
2019-05-12T12:20:35.504Z,0.73
2019-05-12T12:23:10.569Z,0.97
2019-05-12T12:25:35.269Z,1.10
2019-05-12T12:28:04.680Z,0.70
2019-05-12T12:30:34.202Z,0.63
2019-05-12T12:33:04.301Z,0.53
2019-05-12T12:35:34.651Z,0.53
2019-05-12T12:38:04.216Z,0.83
2019-05-12T12:40:33.258Z,0.80
2019-05-12T12:43:03.821Z,0.80
2019-05-12T12:45:46.697Z,0.90
2019-05-12T12:48:19.431Z,0.80
2019-05-12T12:50:46.269Z,0.67
2019-05-12T12:53:15.208Z,0.73
2019-05-12T12:55:45.198Z,0.67
2019-05-12T12:58:14.435Z,0.70
2019-05-12T13:00:49.681Z,0.43
2019-05-12T13:03:14.534Z,1.00
2019-05-12T13:05:43.974Z,0.70
2019-05-12T13:08:13.035Z,0.90
2019-05-12T13:10:49.499Z,0.60
2019-05-12T13:13:14.216Z,0.60
2019-05-12T13:15:44.474Z,0.90
2019-05-12T13:18:17.884Z,0.60
2019-05-12T13:20:44.614Z,0.80
2019-05-12T13:23:14.201Z,0.90
2019-05-12T13:25:48.418Z,0.60
2019-05-12T13:28:18.995Z,0.80
2019-05-12T13:30:48.819Z,0.80
2019-05-12T13:35:43.546Z,1.00
2019-05-12T13:38:14.512Z,0.90
2019-05-12T13:40:44.235Z,1.00
2019-05-12T13:43:15.531Z,7.10
2019-05-12T13:45:44.824Z,1.20
2019-05-12T13:48:15.947Z,0.57
2019-05-12T13:50:44.582Z,1.20
2019-05-12T13:53:14.040Z,0.97
2019-05-12T13:55:47.420Z,1.07
2019-05-12T13:58:13.805Z,0.93
2019-05-12T14:00:50.777Z,1.03
2019-05-12T14:03:14.032Z,1.03
2019-05-12T14:05:50.608Z,1.10
2019-05-12T14:08:14.745Z,0.97
2019-05-12T14:10:53.303Z,1.10
2019-05-12T14:13:14.507Z,0.97
2019-05-12T14:15:44.330Z,0.90
2019-05-12T14:18:16.482Z,0.80
2019-05-12T14:20:45.166Z,0.93
2019-05-12T14:23:14.807Z,1.33
2019-05-12T14:25:44.109Z,0.80
2019-05-12T14:28:16.317Z,0.80
2019-05-12T14:30:49.644Z,0.90
2019-05-12T14:33:17.960Z,1.07
2019-05-12T14:35:46.093Z,0.70
2019-05-12T14:38:19.442Z,0.80
2019-05-12T14:40:45.922Z,0.80
2019-05-12T14:43:16.808Z,0.70
2019-05-12T14:45:45.590Z,0.80
2019-05-12T14:48:14.534Z,0.90
2019-05-12T14:50:44.135Z,1.00
2019-05-12T14:53:14.468Z,0.97
2019-05-12T14:55:43.698Z,0.57
2019-05-12T14:58:18.151Z,0.70
2019-05-12T15:00:44.554Z,0.90
2019-05-12T15:03:16.293Z,1.00
2019-05-12T15:05:47.081Z,0.80
2019-05-12T15:08:20.317Z,1.03
2019-05-12T15:10:45.850Z,1.00
2019-05-12T15:13:14.787Z,0.83
2019-05-12T15:15:44.045Z,1.00
2019-05-12T15:18:15.916Z,1.17
2019-05-12T15:20:49.775Z,2.43
2019-05-12T15:23:14.864Z,1.07
2019-05-12T15:25:43.786Z,1.63
2019-05-12T15:28:14.517Z,1.00
2019-05-12T15:30:43.724Z,1.10
2019-05-12T15:33:13.897Z,1.23
2019-05-12T15:35:43.895Z,0.90
2019-05-12T15:38:14.766Z,1.00
2019-05-12T15:40:44.261Z,1.20
2019-05-12T15:43:13.797Z,1.17
2019-05-12T15:45:43.663Z,0.80
2019-05-12T15:48:14.533Z,1.00
2019-05-12T15:50:45.773Z,0.83
2019-05-12T15:53:21.944Z,4.50
2019-05-12T15:55:45.577Z,1.40
2019-05-12T15:58:14.509Z,1.23
2019-05-12T16:00:43.906Z,1.60
2019-05-12T16:03:12.991Z,1.53
2019-05-12T16:05:44.380Z,5.43
2019-05-12T16:08:14.284Z,0.93
2019-05-12T16:10:44.350Z,1.00
2019-05-12T16:13:15.687Z,1.40
2019-05-12T16:15:44.024Z,1.07
2019-05-12T16:18:14.443Z,2.63
2019-05-12T16:20:44.122Z,1.23
2019-05-12T16:23:17.209Z,1.00
2019-05-12T16:25:44.057Z,2.63
2019-05-12T16:28:15.141Z,1.07
2019-05-12T16:30:47.100Z,1.17
2019-05-12T16:33:20.529Z,1.00
2019-05-12T16:35:45.357Z,1.00
2019-05-12T16:38:19.675Z,0.80
2019-05-12T16:40:49.425Z,0.90
2019-05-12T16:43:15.612Z,1.10
2019-05-12T16:45:44.546Z,1.20
2019-05-12T16:48:28.628Z,0.97
2019-05-12T16:50:44.293Z,0.90
2019-05-12T16:53:21.999Z,1.20
2019-05-12T16:55:46.610Z,1.10
2019-05-12T16:58:14.989Z,1.23
2019-05-12T17:00:48.919Z,1.07
2019-05-12T17:03:16.574Z,1.27
2019-05-12T17:05:49.936Z,1.10
2019-05-12T17:08:16.281Z,0.90
2019-05-12T17:10:52.422Z,1.00
2019-05-12T17:13:16.200Z,1.00
2019-05-12T17:15:48.870Z,1.10
2019-05-12T17:18:15.913Z,1.10
2019-05-12T17:20:46.999Z,1.47
2019-05-12T17:23:15.456Z,1.20
2019-05-12T17:25:44.422Z,0.93
2019-05-12T17:28:13.518Z,0.80
2019-05-12T17:30:43.665Z,1.53
2019-05-12T17:33:21.996Z,2.20
2019-05-12T17:35:44.668Z,4.73
2019-05-12T17:38:19.721Z,2.10
2019-05-12T17:40:44.597Z,1.60
2019-05-12T17:43:13.600Z,1.00
2019-05-12T17:45:44.275Z,2.17
2019-05-12T17:48:14.266Z,1.83
2019-05-12T17:50:48.583Z,1.50
2019-05-12T17:53:17.661Z,1.03
2019-05-12T17:55:51.057Z,1.10
2019-05-12T17:58:15.644Z,4.10
2019-05-12T18:00:47.659Z,1.93
2019-05-12T18:03:21.461Z,1.70
2019-05-12T18:05:47.979Z,1.33
2019-05-12T18:08:16.841Z,1.13
2019-05-12T18:10:47.922Z,1.57
2019-05-12T18:13:23.099Z,1.00
2019-05-12T18:15:49.323Z,1.07
2019-05-12T18:18:25.871Z,1.20
2019-05-12T18:20:48.947Z,1.30
2019-05-12T18:23:19.718Z,1.27
2019-05-12T18:25:48.680Z,1.33
2019-05-12T18:28:21.679Z,1.00
2019-05-12T18:30:48.297Z,10.33
2019-05-12T18:33:29.647Z,4.80
2019-05-12T18:35:48.113Z,26.50
2019-05-12T18:38:22.999Z,3.23
2019-05-12T18:40:47.770Z,1.70
2019-05-12T18:43:16.724Z,1.80
2019-05-12T18:45:48.798Z,1.50
2019-05-12T18:48:20.594Z,2.03
2019-05-12T18:50:46.949Z,2.20
2019-05-12T18:53:27.518Z,2.37
2019-05-12T18:55:46.595Z,1.67
2019-05-12T18:58:21.754Z,3.07
2019-05-12T19:00:46.182Z,6.67
2019-05-12T19:03:15.206Z,1.70
2019-05-12T19:05:44.235Z,3.70
2019-05-12T19:08:14.058Z,1.03
2019-05-12T19:10:47.807Z,1.77
2019-05-12T19:13:14.028Z,2.30
2019-05-12T19:15:44.099Z,9.17
2019-05-12T19:18:17.995Z,6.63
2019-05-12T19:20:43.859Z,27.83
2019-05-12T19:23:14.242Z,6.30
2019-05-12T19:25:43.804Z,6.93
2019-05-12T19:28:13.561Z,21.17
2019-05-12T19:30:43.732Z,31.70
2019-05-12T19:33:13.539Z,8.80
2019-05-12T19:35:42.871Z,47.57
2019-05-12T19:38:15.076Z,18.73
2019-05-12T19:40:47.241Z,12.33
2019-05-12T19:43:14.177Z,36.97
2019-05-12T19:45:43.685Z,14.40
2019-05-12T19:48:23.799Z,52.83
2019-05-12T19:50:44.508Z,18.53
2019-05-12T19:53:14.232Z,38.10
2019-05-12T19:55:44.318Z,40.20
2019-05-12T19:58:13.580Z,39.23
2019-05-12T20:00:43.873Z,17.07
2019-05-12T20:03:13.905Z,3.97
2019-05-12T20:05:43.467Z,10.23
2019-05-12T20:08:13.628Z,22.67
2019-05-12T20:10:47.633Z,19.67
2019-05-12T20:13:13.864Z,10.83
2019-05-12T20:15:43.667Z,18.17
2019-05-12T20:18:14.643Z,18.40
2019-05-12T20:20:44.772Z,8.30
2019-05-12T20:23:14.345Z,2.70
2019-05-12T20:25:44.266Z,9.43
2019-05-12T20:28:14.403Z,7.53
2019-05-12T20:30:44.080Z,5.03
2019-05-12T20:33:13.889Z,1.90
2019-05-12T20:38:05.810Z,7.33
2019-05-12T20:40:37.574Z,5.83
2019-05-12T20:43:08.295Z,2.00
2019-05-12T20:45:40.669Z,2.57
2019-05-12T20:48:06.802Z,1.30
2019-05-12T20:50:38.679Z,1.17
2019-05-12T20:53:06.552Z,1.50
2019-05-12T20:55:41.018Z,1.10
2019-05-12T20:58:06.194Z,1.03
2019-05-12T21:00:38.748Z,1.23
2019-05-12T21:03:05.894Z,1.00
2019-05-12T21:05:34.966Z,0.80
2019-05-12T21:08:11.131Z,1.00
2019-05-12T21:10:34.718Z,0.80
2019-05-12T21:13:03.770Z,1.00
2019-05-12T21:15:37.237Z,0.80
2019-05-12T21:18:07.311Z,0.97
2019-05-12T21:20:34.287Z,1.17
2019-05-12T21:23:03.278Z,0.93
2019-05-12T21:25:33.904Z,1.00
2019-05-12T21:28:07.481Z,0.90
2019-05-12T21:30:33.960Z,1.00
2019-05-12T21:33:04.907Z,0.90
2019-05-12T21:35:40.665Z,1.10
2019-05-12T21:38:04.731Z,1.43
2019-05-12T21:40:35.067Z,0.83
2019-05-12T21:43:04.321Z,1.10
2019-05-12T21:45:33.889Z,0.87
2019-05-12T21:48:03.694Z,1.20
2019-05-12T21:50:37.935Z,1.17
2019-05-12T21:53:04.303Z,0.90
2019-05-12T21:55:34.542Z,1.13
2019-05-12T21:58:10.464Z,1.00
2019-05-12T22:00:44.949Z,0.80
2019-05-12T22:03:15.637Z,1.10
2019-05-12T22:05:51.532Z,1.23
2019-05-12T22:08:20.684Z,1.17
2019-05-12T22:10:47.894Z,1.00
2019-05-12T22:13:18.140Z,1.10
2019-05-12T22:15:51.466Z,1.40
2019-05-12T22:18:18.081Z,1.00
2019-05-12T22:20:52.226Z,1.00
2019-05-12T22:23:17.914Z,1.07
2019-05-12T22:25:49.133Z,1.00
2019-05-12T22:28:17.514Z,1.33
2019-05-12T22:30:46.563Z,1.40
2019-05-12T22:33:15.526Z,1.23
2019-05-12T22:36:01.563Z,1.30
2019-05-12T22:38:20.983Z,1.20
2019-05-12T22:40:49.159Z,1.00
2019-05-12T22:43:19.184Z,1.50
2019-05-12T22:45:49.458Z,1.60
2019-05-12T22:48:18.673Z,1.30
2019-05-12T22:50:47.592Z,1.30
2019-05-12T22:53:19.349Z,1.30
2019-05-12T22:55:47.188Z,1.33
2019-05-12T22:58:20.687Z,1.50
2019-05-12T23:00:51.158Z,1.77
2019-05-12T23:03:17.600Z,1.43
2019-05-12T23:05:50.706Z,1.43
2019-05-12T23:08:17.190Z,1.50
2019-05-12T23:10:51.286Z,2.37
2019-05-12T23:13:16.853Z,2.40
2019-05-12T23:15:49.429Z,1.20
2019-05-12T23:18:19.662Z,2.00
2019-05-12T23:20:47.251Z,1.90
2019-05-12T23:23:18.797Z,1.97
2019-05-12T23:25:54.301Z,1.60
2019-05-12T23:28:17.421Z,1.60
2019-05-12T23:30:48.566Z,1.50
2019-05-12T23:33:16.987Z,1.40
2019-05-12T23:35:45.957Z,1.30
2019-05-12T23:38:18.851Z,1.47
2019-05-12T23:40:45.589Z,1.53
2019-05-12T23:43:14.693Z,1.40
2019-05-12T23:45:44.490Z,2.17
2019-05-12T23:48:14.279Z,1.77
2019-05-12T23:50:43.789Z,1.27
2019-05-12T23:53:14.055Z,1.37
2019-05-12T23:55:43.773Z,1.50
2019-05-12T23:58:14.455Z,1.73
